EVRAEFTU

Guest
Details From EVRA - Riga Intl
To EFTU - Turku
Flight Number -
Tags generated
Created
Modified
Stats Distance 224 nm / 416 km
Max Altitude 24,400 ft / 7,437 m
Waypoints 4
Social Downloads 1
Likes 0
Share

Download

Looking for another format? Having issues loading an existing format? Contact us
Advertisement - Login to hide

Notes

Basic altitude profile: - Ascent Rate: 2500ft/min - Ascent Speed: 250kts - Cruise Altitude: 35000ft - Cruise Speed: 420kts - Descent Rate: 1500ft/min - Descent Speed: 250kts Options: - Use NATs: yes - Use PACOTS: yes - Use low airways: yes - Use high airways: no

Route

EVRA MASIS ODVIN EFTU

ID Type Via Altitude (ft/m) Position (lat/lon) Dist (leg/tot) Name
O EVRA APT - 0 / 0 56.92366 / 23.97119 - / 0 nm Riga Intl
MASIS FIX - 24,400 / 7,437 58.65583 / 23.36917 105 / 105 nm
ODVIN FIX - 22,100 / 6,736 58.83472 / 23.02583 15 / 120 nm
O EFTU APT - 0 / 0 60.51412 / 22.26281 103 / 224 nm Turku

Altitude Profile

Advertisement - Login to hide

Weather


0- 5 10 15 20 25 30 35+ Temperature / °C

Clouds and Precipitation
Forecast for 2020-12-01 12:00 UTC. Updated an hour ago

Ground ~20,000 ft ~40,000 ft Winds

EVRA

Details ICAO EVRA (RIX)
Name Riga Intl
Region Latvia
Timezone Europe/Riga (UTC+2.0)
Stats Elevation 34 ft / 10 m (AMSL)
Location 56.920700° 23.970700°
Runways 1
Magnetic Variation 8.080° E

METAR

EVRA 011050Z 19010KT CAVOK 03/M01 Q1024 R18/290195 NOSIG

Decode

TAF

TAF EVRA 010800Z 0109/0209 17007KT 9000 BKN020= TAF KDOV 010800Z 0108/0214 23009KT 9999 BKN030 QNH2953INS BECMG 0115/0116 25012G20KT 9999 BKN020 QNH2960INS BECMG 0200/0201 27012KT 9999 BKN050 QNH2983INS TX10/0108Z TN03/0204Z

Decode

Departure Runways

ID Width Length Bearing (true/mag) Surface Threshold Overrun Markings Lighting
18 148 ft / 45 m 10,509 ft / 3,203 m 185.16° / 177.08° ASPHALT 0 ft / 0 m 171 ft / 52 m PREC-APP CENTERLINE EDGE THRESHOLD ALSF-II REIL-OMNI
36 148 ft / 45 m 10,509 ft / 3,203 m 5.15° / 357.07° ASPHALT 0 ft / 0 m 167 ft / 51 m PREC-APP CENTERLINE EDGE THRESHOLD ALSF-II REIL-OMNI

EFTU

Details ICAO EFTU (TKU)
Name Turku
Region Finland
Timezone Europe/Helsinki (UTC+2.0)
Stats Elevation 161 ft / 49 m (AMSL)
Location 60.514100° 22.262800°
Runways 1
Magnetic Variation 8.451° E

METAR

EFTU 011050Z AUTO 24011KT 9999 -RA OVC015 04/02 Q1018

Decode

TAF

TAF EFTU 010835Z 0109/0209 25012KT 9999 -RA BKN009 TEMPO 0109/0116 7000 SCT007 BKN015 BECMG 0116/0118 32003KT SCT012 BKN030 TEMPO 0118/0206 BKN012 PROB40 0118/0206 2500 BR

Decode

Destination Runways

ID Width Length Bearing (true/mag) Surface Threshold Overrun Markings Lighting
08 197 ft / 60 m 8,210 ft / 2,502 m 84.82° / 76.37° ASPHALT 0 ft / 0 m 167 ft / 51 m PREC-APP EDGE THRESHOLD MALS
26 197 ft / 60 m 8,210 ft / 2,502 m 264.86° / 256.41° ASPHALT 0 ft / 0 m 49 ft / 15 m PREC-APP EDGE THRESHOLD CALVERT

Approach Navaids

Runway Type Ident Frequency Range Bearing (true/mag) Slope Elevation
26 DME TU 109.50 MHz 18 nm / 33 km - - 200 ft / 61 m (AMSL)
26 LOC-ILS TU 109.50 MHz 18 nm / 33 km 264.82° / 256.37 ° - 161 ft / 49 m (AMSL)
26 GS TU 109.50 MHz 10 nm / 19 km 265.68° / 257.23 ° 3.00° 161 ft / 49 m (AMSL)

Popular Alternatives